sensor_id;sensor_type;location;lat;lon;timestamp;pressure;altitude;pressure_sealevel;temperature;humidity
52185;BME280;38160;52.876;18.778;2023-02-03T00:00:12;101351.84;;;-0.92;98.10
52185;BME280;38160;52.876;18.778;2023-02-03T00:03:09;101362.39;;;-0.94;98.07
52185;BME280;38160;52.876;18.778;2023-02-03T00:05:47;101367.43;;;-1.00;97.94
52185;BME280;38160;52.876;18.778;2023-02-03T00:08:24;101361.92;;;-1.08;98.15
52185;BME280;38160;52.876;18.778;2023-02-03T00:11:01;101358.18;;;-1.11;98.31
52185;BME280;38160;52.876;18.778;2023-02-03T00:13:37;101360.55;;;-1.15;98.32
52185;BME280;38160;52.876;18.778;2023-02-03T00:16:13;101364.83;;;-1.20;98.42
52185;BME280;38160;52.876;18.778;2023-02-03T00:18:50;101366.45;;;-1.25;98.45
52185;BME280;38160;52.876;18.778;2023-02-03T00:21:26;101368.91;;;-1.29;98.57
52185;BME280;38160;52.876;18.778;2023-02-03T00:24:03;101371.38;;;-1.32;98.77
52185;BME280;38160;52.876;18.778;2023-02-03T00:26:42;101368.17;;;-1.36;98.83
52185;BME280;38160;52.876;18.778;2023-02-03T00:29:18;101370.41;;;-1.38;99.07
52185;BME280;38160;52.876;18.778;2023-02-03T00:31:59;101368.50;;;-1.43;99.20
52185;BME280;38160;52.876;18.778;2023-02-03T00:34:35;101366.91;;;-1.47;98.92
52185;BME280;38160;52.876;18.778;2023-02-03T00:37:12;101362.85;;;-1.51;99.19
52185;BME280;38160;52.876;18.778;2023-02-03T00:39:49;101365.79;;;-1.54;99.26
52185;BME280;38160;52.876;18.778;2023-02-03T00:42:26;101362.06;;;-1.56;99.40
52185;BME280;38160;52.876;18.778;2023-02-03T00:45:02;101355.89;;;-1.61;99.38
52185;BME280;38160;52.876;18.778;2023-02-03T00:47:38;101351.13;;;-1.65;99.42
52185;BME280;38160;52.876;18.778;2023-02-03T00:50:14;101346.82;;;-1.67;99.61
52185;BME280;38160;52.876;18.778;2023-02-03T00:52:51;101343.61;;;-1.70;99.55
52185;BME280;38160;52.876;18.778;2023-02-03T00:55:27;101335.96;;;-1.73;99.56
52185;BME280;38160;52.876;18.778;2023-02-03T00:58:03;101326.02;;;-1.75;99.72
52185;BME280;38160;52.876;18.778;2023-02-03T01:00:39;101320.84;;;-1.78;99.86
52185;BME280;38160;52.876;18.778;2023-02-03T01:03:16;101322.15;;;-1.79;99.95
52185;BME280;38160;52.876;18.778;2023-02-03T01:05:52;101329.63;;;-1.81;99.95
52185;BME280;38160;52.876;18.778;2023-02-03T01:08:28;101324.93;;;-1.82;99.99
52185;BME280;38160;52.876;18.778;2023-02-03T01:11:12;101316.53;;;-1.84;100.00
52185;BME280;38160;52.876;18.778;2023-02-03T01:13:49;101315.20;;;-1.86;99.97
52185;BME280;38160;52.876;18.778;2023-02-03T01:16:26;101316.54;;;-1.88;100.00
52185;BME280;38160;52.876;18.778;2023-02-03T01:19:02;101312.95;;;-1.91;99.99
52185;BME280;38160;52.876;18.778;2023-02-03T01:21:39;101310.77;;;-1.94;100.00
52185;BME280;38160;52.876;18.778;2023-02-03T01:24:15;101314.64;;;-1.97;100.00
52185;BME280;38160;52.876;18.778;2023-02-03T01:26:52;101314.59;;;-2.00;100.00
52185;BME280;38160;52.876;18.778;2023-02-03T01:29:28;101307.52;;;-2.04;100.00
52185;BME280;38160;52.876;18.778;2023-02-03T01:32:06;101307.60;;;-2.06;100.00
52185;BME280;38160;52.876;18.778;2023-02-03T01:34:43;101306.11;;;-2.08;100.00
52185;BME280;38160;52.876;18.778;2023-02-03T01:37:19;101304.23;;;-2.09;100.00
52185;BME280;38160;52.876;18.778;2023-02-03T01:39:56;101304.61;;;-2.10;100.00
52185;BME280;38160;52.876;18.778;2023-02-03T01:42:34;101303.77;;;-2.11;100.00
52185;BME280;38160;52.876;18.778;2023-02-03T01:45:11;101297.10;;;-2.11;100.00
52185;BME280;38160;52.876;18.778;2023-02-03T01:47:51;101290.02;;;-2.11;100.00
52185;BME280;38160;52.876;18.778;2023-02-03T01:50:30;101282.81;;;-2.11;100.00
52185;BME280;38160;52.876;18.778;2023-02-03T01:53:12;101275.75;;;-2.11;100.00
52185;BME280;38160;52.876;18.778;2023-02-03T01:55:53;101265.88;;;-2.11;100.00
52185;BME280;38160;52.876;18.778;2023-02-03T01:58:38;101264.88;;;-2.12;100.00
52185;BME280;38160;52.876;18.778;2023-02-03T02:01:18;101264.05;;;-2.13;100.00
52185;BME280;38160;52.876;18.778;2023-02-03T02:04:02;101259.26;;;-2.13;100.00
52185;BME280;38160;52.876;18.778;2023-02-03T02:07:09;101255.89;;;-2.13;100.00
52185;BME280;38160;52.876;18.778;2023-02-03T02:10:44;101254.66;;;-2.13;100.00
52185;BME280;38160;52.876;18.778;2023-02-03T02:13:23;101255.48;;;-2.11;100.00
52185;BME280;38160;52.876;18.778;2023-02-03T02:16:07;101251.21;;;-2.10;100.00
52185;BME280;38160;52.876;18.778;2023-02-03T02:22:07;101244.99;;;-2.09;100.00
52185;BME280;38160;52.876;18.778;2023-02-03T02:25:41;101245.81;;;-2.08;100.00
52185;BME280;38160;52.876;18.778;2023-02-03T02:32:18;101245.38;;;-2.06;100.00
52185;BME280;38160;52.876;18.778;2023-02-03T02:35:08;101243.73;;;-2.05;100.00
52185;BME280;38160;52.876;18.778;2023-02-03T02:37:51;101239.39;;;-2.02;100.00
52185;BME280;38160;52.876;18.778;2023-02-03T02:40:45;101229.61;;;-2.00;100.00
52185;BME280;38160;52.876;18.778;2023-02-03T02:43:38;101218.61;;;-1.99;100.00
52185;BME280;38160;52.876;18.778;2023-02-03T02:46:22;101208.86;;;-1.98;100.00
52185;BME280;38160;52.876;18.778;2023-02-03T02:49:24;101206.63;;;-1.95;100.00
52185;BME280;38160;52.876;18.778;2023-02-03T02:52:07;101201.45;;;-1.94;100.00
52185;BME280;38160;52.876;18.778;2023-02-03T02:55:16;101198.04;;;-1.93;100.00
52185;BME280;38160;52.876;18.778;2023-02-03T02:58:02;101193.20;;;-1.91;100.00
52185;BME280;38160;52.876;18.778;2023-02-03T03:00:47;101187.33;;;-1.90;100.00
52185;BME280;38160;52.876;18.778;2023-02-03T03:03:45;101188.83;;;-1.88;100.00
52185;BME280;38160;52.876;18.778;2023-02-03T03:06:23;101187.20;;;-1.87;100.00
52185;BME280;38160;52.876;18.778;2023-02-03T03:09:11;101176.41;;;-1.86;100.00
52185;BME280;38160;52.876;18.778;2023-02-03T03:12:09;101175.21;;;-1.83;100.00
52185;BME280;38160;52.876;18.778;2023-02-03T03:14:53;101174.31;;;-1.83;100.00
52185;BME280;38160;52.876;18.778;2023-02-03T03:17:39;101171.98;;;-1.82;100.00
52185;BME280;38160;52.876;18.778;2023-02-03T03:20:23;101172.20;;;-1.79;100.00
52185;BME280;38160;52.876;18.778;2023-02-03T03:23:06;101174.60;;;-1.78;100.00
52185;BME280;38160;52.876;18.778;2023-02-03T03:25:48;101176.45;;;-1.76;100.00
52185;BME280;38160;52.876;18.778;2023-02-03T03:28:34;101172.83;;;-1.74;100.00
52185;BME280;38160;52.876;18.778;2023-02-03T03:31:15;101172.77;;;-1.72;100.00
52185;BME280;38160;52.876;18.778;2023-02-03T03:33:58;101171.44;;;-1.70;100.00
52185;BME280;38160;52.876;18.778;2023-02-03T03:36:39;101173.73;;;-1.67;100.00
52185;BME280;38160;52.876;18.778;2023-02-03T03:39:26;101172.85;;;-1.63;100.00
52185;BME280;38160;52.876;18.778;2023-02-03T03:42:16;101175.48;;;-1.59;100.00
52185;BME280;38160;52.876;18.778;2023-02-03T03:44:59;101176.85;;;-1.58;100.00
52185;BME280;38160;52.876;18.778;2023-02-03T03:47:41;101168.20;;;-1.58;100.00
52185;BME280;38160;52.876;18.778;2023-02-03T03:50:32;101165.16;;;-1.57;100.00
52185;BME280;38160;52.876;18.778;2023-02-03T03:53:11;101162.52;;;-1.57;100.00
52185;BME280;38160;52.876;18.778;2023-02-03T03:55:52;101156.08;;;-1.55;100.00
52185;BME280;38160;52.876;18.778;2023-02-03T03:58:31;101148.51;;;-1.52;100.00
52185;BME280;38160;52.876;18.778;2023-02-03T04:01:10;101141.67;;;-1.49;100.00
52185;BME280;38160;52.876;18.778;2023-02-03T04:04:16;101137.30;;;-1.47;100.00
52185;BME280;38160;52.876;18.778;2023-02-03T04:06:54;101135.58;;;-1.44;100.00
52185;BME280;38160;52.876;18.778;2023-02-03T04:09:30;101135.15;;;-1.42;100.00
52185;BME280;38160;52.876;18.778;2023-02-03T04:12:18;101135.72;;;-1.39;100.00
52185;BME280;38160;52.876;18.778;2023-02-03T04:15:06;101134.13;;;-1.39;100.00
52185;BME280;38160;52.876;18.778;2023-02-03T04:17:46;101135.05;;;-1.40;100.00
52185;BME280;38160;52.876;18.778;2023-02-03T04:20:23;101134.85;;;-1.40;100.00
52185;BME280;38160;52.876;18.778;2023-02-03T04:22:59;101129.98;;;-1.37;100.00
52185;BME280;38160;52.876;18.778;2023-02-03T04:25:36;101127.36;;;-1.35;100.00
52185;BME280;38160;52.876;18.778;2023-02-03T04:28:12;101127.69;;;-1.34;100.00
52185;BME280;38160;52.876;18.778;2023-02-03T04:30:48;101125.09;;;-1.31;100.00
52185;BME280;38160;52.876;18.778;2023-02-03T04:33:24;101121.84;;;-1.30;100.00
52185;BME280;38160;52.876;18.778;2023-02-03T04:36:01;101116.80;;;-1.32;100.00
52185;BME280;38160;52.876;18.778;2023-02-03T04:38:37;101115.80;;;-1.33;100.00
52185;BME280;38160;52.876;18.778;2023-02-03T04:41:13;101101.02;;;-1.34;100.00
52185;BME280;38160;52.876;18.778;2023-02-03T04:43:50;101093.69;;;-1.32;100.00
52185;BME280;38160;52.876;18.778;2023-02-03T04:46:27;101097.41;;;-1.29;100.00
52185;BME280;38160;52.876;18.778;2023-02-03T04:49:03;101091.08;;;-1.29;100.00
52185;BME280;38160;52.876;18.778;2023-02-03T04:51:40;101084.29;;;-1.31;100.00
52185;BME280;38160;52.876;18.778;2023-02-03T04:54:18;101077.69;;;-1.30;100.00
52185;BME280;38160;52.876;18.778;2023-02-03T04:56:54;101068.58;;;-1.28;100.00
52185;BME280;38160;52.876;18.778;2023-02-03T04:59:32;101063.66;;;-1.28;100.00
52185;BME280;38160;52.876;18.778;2023-02-03T05:02:10;101062.02;;;-1.27;100.00
52185;BME280;38160;52.876;18.778;2023-02-03T05:05:03;101055.28;;;-1.27;100.00
52185;BME280;38160;52.876;18.778;2023-02-03T05:07:42;101049.80;;;-1.23;100.00
52185;BME280;38160;52.876;18.778;2023-02-03T05:10:18;101045.95;;;-1.20;100.00
52185;BME280;38160;52.876;18.778;2023-02-03T05:12:54;101046.38;;;-1.21;100.00
52185;BME280;38160;52.876;18.778;2023-02-03T05:15:30;101042.16;;;-1.22;100.00
52185;BME280;38160;52.876;18.778;2023-02-03T05:18:06;101036.00;;;-1.23;100.00
52185;BME280;38160;52.876;18.778;2023-02-03T05:20:42;101033.55;;;-1.23;100.00
52185;BME280;38160;52.876;18.778;2023-02-03T05:23:19;101026.25;;;-1.22;100.00
52185;BME280;38160;52.876;18.778;2023-02-03T05:25:55;101016.62;;;-1.20;100.00
52185;BME280;38160;52.876;18.778;2023-02-03T05:28:32;101012.85;;;-1.19;100.00
52185;BME280;38160;52.876;18.778;2023-02-03T05:31:09;101005.98;;;-1.19;100.00
52185;BME280;38160;52.876;18.778;2023-02-03T05:33:45;101001.79;;;-1.20;100.00
52185;BME280;38160;52.876;18.778;2023-02-03T05:36:23;100998.06;;;-1.23;100.00
52185;BME280;38160;52.876;18.778;2023-02-03T05:39:00;100997.88;;;-1.22;100.00
52185;BME280;38160;52.876;18.778;2023-02-03T05:41:36;100993.34;;;-1.20;100.00
52185;BME280;38160;52.876;18.778;2023-02-03T05:44:28;100992.50;;;-1.21;100.00
52185;BME280;38160;52.876;18.778;2023-02-03T05:47:04;100984.46;;;-1.22;100.00
52185;BME280;38160;52.876;18.778;2023-02-03T05:49:41;100984.55;;;-1.24;100.00
52185;BME280;38160;52.876;18.778;2023-02-03T05:52:17;100982.29;;;-1.25;100.00
52185;BME280;38160;52.876;18.778;2023-02-03T05:54:53;100979.93;;;-1.24;100.00
52185;BME280;38160;52.876;18.778;2023-02-03T05:57:30;100981.06;;;-1.22;100.00
52185;BME280;38160;52.876;18.778;2023-02-03T06:00:09;100980.16;;;-1.21;100.00
52185;BME280;38160;52.876;18.778;2023-02-03T06:02:51;100976.81;;;-1.21;100.00
52185;BME280;38160;52.876;18.778;2023-02-03T06:05:28;100975.16;;;-1.23;100.00
52185;BME280;38160;52.876;18.778;2023-02-03T06:08:05;100965.91;;;-1.26;100.00
52185;BME280;38160;52.876;18.778;2023-02-03T06:10:41;100960.66;;;-1.27;100.00
52185;BME280;38160;52.876;18.778;2023-02-03T06:13:19;100954.85;;;-1.27;100.00
52185;BME280;38160;52.876;18.778;2023-02-03T06:15:55;100951.92;;;-1.25;100.00
52185;BME280;38160;52.876;18.778;2023-02-03T06:18:31;100945.19;;;-1.21;100.00
52185;BME280;38160;52.876;18.778;2023-02-03T06:28:09;100924.94;;;-1.26;100.00
52185;BME280;38160;52.876;18.778;2023-02-03T06:30:47;100917.98;;;-1.24;100.00
52185;BME280;38160;52.876;18.778;2023-02-03T06:33:39;100910.35;;;-1.23;100.00
52185;BME280;38160;52.876;18.778;2023-02-03T06:36:26;100900.37;;;-1.28;100.00
52185;BME280;38160;52.876;18.778;2023-02-03T06:39:03;100894.77;;;-1.29;100.00
52185;BME280;38160;52.876;18.778;2023-02-03T06:41:39;100891.67;;;-1.27;100.00
52185;BME280;38160;52.876;18.778;2023-02-03T06:44:15;100888.40;;;-1.25;100.00
52185;BME280;38160;52.876;18.778;2023-02-03T06:47:00;100882.62;;;-1.23;100.00
52185;BME280;38160;52.876;18.778;2023-02-03T06:49:36;100874.73;;;-1.21;100.00
52185;BME280;38160;52.876;18.778;2023-02-03T06:52:15;100868.66;;;-1.23;100.00
52185;BME280;38160;52.876;18.778;2023-02-03T06:54:51;100864.91;;;-1.22;100.00
52185;BME280;38160;52.876;18.778;2023-02-03T06:57:28;100863.65;;;-1.18;100.00
52185;BME280;38160;52.876;18.778;2023-02-03T07:00:05;100859.65;;;-1.16;100.00
52185;BME280;38160;52.876;18.778;2023-02-03T07:02:45;100851.59;;;-1.11;100.00
52185;BME280;38160;52.876;18.778;2023-02-03T07:05:23;100841.72;;;-1.11;100.00
52185;BME280;38160;52.876;18.778;2023-02-03T07:08:25;100832.30;;;-1.10;100.00
52185;BME280;38160;52.876;18.778;2023-02-03T07:11:04;100826.11;;;-1.07;100.00
52185;BME280;38160;52.876;18.778;2023-02-03T07:13:42;100818.92;;;-1.01;100.00
52185;BME280;38160;52.876;18.778;2023-02-03T07:16:18;100808.92;;;-0.96;100.00
52185;BME280;38160;52.876;18.778;2023-02-03T07:18:55;100804.78;;;-0.92;100.00
52185;BME280;38160;52.876;18.778;2023-02-03T07:21:31;100799.59;;;-0.84;100.00
52185;BME280;38160;52.876;18.778;2023-02-03T07:24:09;100791.36;;;-0.79;100.00
52185;BME280;38160;52.876;18.778;2023-02-03T07:27:05;100782.58;;;-0.74;100.00
52185;BME280;38160;52.876;18.778;2023-02-03T07:29:47;100784.17;;;-0.68;100.00
52185;BME280;38160;52.876;18.778;2023-02-03T07:32:23;100777.22;;;-0.64;100.00
52185;BME280;38160;52.876;18.778;2023-02-03T07:34:59;100766.20;;;-0.60;100.00
52185;BME280;38160;52.876;18.778;2023-02-03T07:37:36;100764.89;;;-0.55;100.00
52185;BME280;38160;52.876;18.778;2023-02-03T07:40:18;100758.03;;;-0.53;100.00
52185;BME280;38160;52.876;18.778;2023-02-03T07:42:55;100747.77;;;-0.53;100.00
52185;BME280;38160;52.876;18.778;2023-02-03T07:45:31;100744.86;;;-0.51;100.00
52185;BME280;38160;52.876;18.778;2023-02-03T07:48:08;100743.46;;;-0.48;100.00
52185;BME280;38160;52.876;18.778;2023-02-03T07:50:46;100736.05;;;-0.43;100.00
52185;BME280;38160;52.876;18.778;2023-02-03T07:53:22;100731.59;;;-0.39;100.00
52185;BME280;38160;52.876;18.778;2023-02-03T07:56:01;100725.00;;;-0.35;100.00
52185;BME280;38160;52.876;18.778;2023-02-03T07:58:38;100714.19;;;-0.29;100.00
52185;BME280;38160;52.876;18.778;2023-02-03T08:01:15;100712.87;;;-0.25;100.00
52185;BME280;38160;52.876;18.778;2023-02-03T08:03:53;100702.98;;;-0.22;100.00
52185;BME280;38160;52.876;18.778;2023-02-03T08:06:31;100689.44;;;-0.17;100.00
52185;BME280;38160;52.876;18.778;2023-02-03T08:09:07;100685.56;;;-0.09;100.00
52185;BME280;38160;52.876;18.778;2023-02-03T08:11:43;100676.34;;;-0.03;99.99
52185;BME280;38160;52.876;18.778;2023-02-03T08:18:30;100649.10;;;0.08;99.76
52185;BME280;38160;52.876;18.778;2023-02-03T08:21:06;100647.61;;;0.12;99.90
52185;BME280;38160;52.876;18.778;2023-02-03T08:23:43;100636.60;;;0.22;100.00
52185;BME280;38160;52.876;18.778;2023-02-03T08:39:06;100602.90;;;0.26;99.41
52185;BME280;38160;52.876;18.778;2023-02-03T08:41:42;100595.36;;;0.25;99.03
52185;BME280;38160;52.876;18.778;2023-02-03T08:44:21;100594.67;;;0.24;99.11
52185;BME280;38160;52.876;18.778;2023-02-03T08:47:03;100590.67;;;0.25;99.25
52185;BME280;38160;52.876;18.778;2023-02-03T08:49:39;100586.19;;;0.29;99.17
52185;BME280;38160;52.876;18.778;2023-02-03T08:52:16;100579.86;;;0.32;98.94
52185;BME280;38160;52.876;18.778;2023-02-03T08:54:52;100576.80;;;0.35;99.03
52185;BME280;38160;52.876;18.778;2023-02-03T08:57:32;100568.77;;;0.36;98.68
52185;BME280;38160;52.876;18.778;2023-02-03T09:00:11;100559.32;;;0.37;98.88
52185;BME280;38160;52.876;18.778;2023-02-03T09:02:48;100549.17;;;0.38;98.65
52185;BME280;38160;52.876;18.778;2023-02-03T09:05:24;100543.80;;;0.39;98.70
52185;BME280;38160;52.876;18.778;2023-02-03T09:08:00;100536.92;;;0.41;98.43
52185;BME280;38160;52.876;18.778;2023-02-03T09:10:38;100534.30;;;0.43;98.48
52185;BME280;38160;52.876;18.778;2023-02-03T09:13:14;100526.67;;;0.49;98.78
52185;BME280;38160;52.876;18.778;2023-02-03T09:15:53;100512.27;;;0.53;98.60
52185;BME280;38160;52.876;18.778;2023-02-03T09:18:30;100501.98;;;0.55;98.21
52185;BME280;38160;52.876;18.778;2023-02-03T09:21:08;100494.55;;;0.55;98.38
52185;BME280;38160;52.876;18.778;2023-02-03T09:23:46;100481.84;;;0.57;98.42
52185;BME280;38160;52.876;18.778;2023-02-03T09:26:23;100477.38;;;0.61;98.70
52185;BME280;38160;52.876;18.778;2023-02-03T09:28:59;100477.94;;;0.63;98.55
52185;BME280;38160;52.876;18.778;2023-02-03T09:31:36;100465.48;;;0.64;98.35
52185;BME280;38160;52.876;18.778;2023-02-03T09:34:12;100461.27;;;0.66;98.20
52185;BME280;38160;52.876;18.778;2023-02-03T09:36:48;100457.28;;;0.70;98.77
52185;BME280;38160;52.876;18.778;2023-02-03T09:39:25;100453.71;;;0.75;98.43
52185;BME280;38160;52.876;18.778;2023-02-03T09:42:09;100443.57;;;0.73;98.60
52185;BME280;38160;52.876;18.778;2023-02-03T09:45:02;100429.50;;;0.70;98.75
52185;BME280;38160;52.876;18.778;2023-02-03T09:47:46;100417.41;;;0.70;99.51
52185;BME280;38160;52.876;18.778;2023-02-03T09:50:32;100410.17;;;0.75;99.48
52185;BME280;38160;52.876;18.778;2023-02-03T09:53:18;100403.48;;;0.75;99.35
52185;BME280;38160;52.876;18.778;2023-02-03T09:56:08;100397.38;;;0.76;99.77
52185;BME280;38160;52.876;18.778;2023-02-03T09:58:50;100385.75;;;0.80;99.83
52185;BME280;38160;52.876;18.778;2023-02-03T10:02:48;100361.51;;;0.74;99.90
52185;BME280;38160;52.876;18.778;2023-02-03T10:05:45;100358.23;;;0.78;99.99
52185;BME280;38160;52.876;18.778;2023-02-03T10:08:31;100351.60;;;0.77;99.78
52185;BME280;38160;52.876;18.778;2023-02-03T10:11:21;100338.73;;;0.72;100.00
52185;BME280;38160;52.876;18.778;2023-02-03T10:14:14;100335.21;;;0.71;100.00
52185;BME280;38160;52.876;18.778;2023-02-03T10:17:07;100320.61;;;0.69;100.00
52185;BME280;38160;52.876;18.778;2023-02-03T10:19:50;100303.42;;;0.67;100.00
52185;BME280;38160;52.876;18.778;2023-02-03T10:22:30;100294.23;;;0.62;100.00
52185;BME280;38160;52.876;18.778;2023-02-03T10:25:11;100283.44;;;0.59;100.00
52185;BME280;38160;52.876;18.778;2023-02-03T10:27:54;100275.17;;;0.58;100.00
52185;BME280;38160;52.876;18.778;2023-02-03T10:30:37;100271.59;;;0.57;100.00
52185;BME280;38160;52.876;18.778;2023-02-03T10:33:19;100263.23;;;0.54;100.00
52185;BME280;38160;52.876;18.778;2023-02-03T10:36:01;100250.05;;;0.51;100.00
52185;BME280;38160;52.876;18.778;2023-02-03T10:38:49;100242.69;;;0.47;100.00
52185;BME280;38160;52.876;18.778;2023-02-03T10:41:29;100233.88;;;0.45;100.00
52185;BME280;38160;52.876;18.778;2023-02-03T10:44:08;100220.05;;;0.42;100.00
52185;BME280;38160;52.876;18.778;2023-02-03T10:46:47;100207.64;;;0.40;100.00
52185;BME280;38160;52.876;18.778;2023-02-03T10:49:27;100200.98;;;0.39;100.00
52185;BME280;38160;52.876;18.778;2023-02-03T10:52:04;100191.75;;;0.39;100.00
52185;BME280;38160;52.876;18.778;2023-02-03T10:54:52;100177.50;;;0.41;100.00
52185;BME280;38160;52.876;18.778;2023-02-03T10:57:35;100167.75;;;0.39;100.00
52185;BME280;38160;52.876;18.778;2023-02-03T11:00:23;100156.05;;;0.36;100.00
52185;BME280;38160;52.876;18.778;2023-02-03T11:03:06;100145.59;;;0.34;100.00
52185;BME280;38160;52.876;18.778;2023-02-03T11:05:43;100131.72;;;0.35;100.00
52185;BME280;38160;52.876;18.778;2023-02-03T11:08:40;100121.22;;;0.38;100.00
52185;BME280;38160;52.876;18.778;2023-02-03T11:11:22;100106.17;;;0.41;100.00
52185;BME280;38160;52.876;18.778;2023-02-03T11:14:16;100097.02;;;0.43;100.00
52185;BME280;38160;52.876;18.778;2023-02-03T11:16:52;100075.59;;;0.43;100.00
52185;BME280;38160;52.876;18.778;2023-02-03T11:19:28;100069.95;;;0.45;100.00
52185;BME280;38160;52.876;18.778;2023-02-03T11:22:04;100061.41;;;0.46;100.00
52185;BME280;38160;52.876;18.778;2023-02-03T11:24:42;100049.21;;;0.45;100.00
52185;BME280;38160;52.876;18.778;2023-02-03T11:27:20;100038.39;;;0.48;100.00
52185;BME280;38160;52.876;18.778;2023-02-03T11:30:13;100022.92;;;0.54;100.00
52185;BME280;38160;52.876;18.778;2023-02-03T11:32:51;100006.67;;;0.58;100.00
52185;BME280;38160;52.876;18.778;2023-02-03T11:35:29;99998.63;;;0.57;100.00
52185;BME280;38160;52.876;18.778;2023-02-03T11:38:29;99987.48;;;0.52;100.00
52185;BME280;38160;52.876;18.778;2023-02-03T11:41:08;99976.89;;;0.51;100.00
52185;BME280;38160;52.876;18.778;2023-02-03T11:43:50;99962.70;;;0.52;100.00
52185;BME280;38160;52.876;18.778;2023-02-03T11:46:31;99954.02;;;0.54;100.00
52185;BME280;38160;52.876;18.778;2023-02-03T11:53:26;99919.11;;;0.50;100.00
52185;BME280;38160;52.876;18.778;2023-02-03T11:56:21;99906.81;;;0.51;100.00
52185;BME280;38160;52.876;18.778;2023-02-03T11:59:33;99891.95;;;0.51;100.00
52185;BME280;38160;52.876;18.778;2023-02-03T12:02:49;99876.60;;;0.49;100.00
52185;BME280;38160;52.876;18.778;2023-02-03T12:05:50;99868.61;;;0.42;100.00
52185;BME280;38160;52.876;18.778;2023-02-03T12:08:56;99852.50;;;0.39;100.00
52185;BME280;38160;52.876;18.778;2023-02-03T12:11:58;99845.00;;;0.38;100.00
52185;BME280;38160;52.876;18.778;2023-02-03T12:14:48;99839.35;;;0.36;100.00
52185;BME280;38160;52.876;18.778;2023-02-03T12:17:43;99833.45;;;0.32;100.00
52185;BME280;38160;52.876;18.778;2023-02-03T12:20:32;99824.02;;;0.35;100.00
52185;BME280;38160;52.876;18.778;2023-02-03T12:23:23;99816.14;;;0.34;100.00
52185;BME280;38160;52.876;18.778;2023-02-03T12:26:18;99801.90;;;0.35;100.00
52185;BME280;38160;52.876;18.778;2023-02-03T12:29:03;99795.27;;;0.34;100.00
52185;BME280;38160;52.876;18.778;2023-02-03T12:31:58;99784.21;;;0.31;100.00
52185;BME280;38160;52.876;18.778;2023-02-03T12:34:58;99776.13;;;0.26;100.00
52185;BME280;38160;52.876;18.778;2023-02-03T12:37:48;99768.23;;;0.22;100.00
52185;BME280;38160;52.876;18.778;2023-02-03T12:40:32;99756.88;;;0.18;100.00
52185;BME280;38160;52.876;18.778;2023-02-03T12:43:23;99747.39;;;0.13;100.00
52185;BME280;38160;52.876;18.778;2023-02-03T12:46:03;99733.32;;;0.07;100.00
52185;BME280;38160;52.876;18.778;2023-02-03T12:48:47;99727.63;;;0.05;100.00
52185;BME280;38160;52.876;18.778;2023-02-03T12:51:32;99721.84;;;0.03;100.00
52185;BME280;38160;52.876;18.778;2023-02-03T12:54:30;99706.73;;;-0.01;100.00
52185;BME280;38160;52.876;18.778;2023-02-03T12:57:14;99703.24;;;-0.02;100.00
52185;BME280;38160;52.876;18.778;2023-02-03T13:00:09;99696.06;;;-0.00;100.00
52185;BME280;38160;52.876;18.778;2023-02-03T13:03:01;99686.90;;;-0.03;100.00
52185;BME280;38160;52.876;18.778;2023-02-03T13:05:46;99683.91;;;-0.06;100.00
52185;BME280;38160;52.876;18.778;2023-02-03T13:08:28;99679.45;;;-0.08;100.00
52185;BME280;38160;52.876;18.778;2023-02-03T13:11:14;99670.88;;;-0.09;100.00
52185;BME280;38160;52.876;18.778;2023-02-03T13:13:58;99662.80;;;-0.07;100.00
52185;BME280;38160;52.876;18.778;2023-02-03T13:16:42;99658.48;;;-0.08;100.00
52185;BME280;38160;52.876;18.778;2023-02-03T13:19:21;99654.32;;;-0.07;100.00
52185;BME280;38160;52.876;18.778;2023-02-03T13:22:13;99645.16;;;-0.08;100.00
52185;BME280;38160;52.876;18.778;2023-02-03T13:25:18;99640.94;;;-0.08;100.00
52185;BME280;38160;52.876;18.778;2023-02-03T13:28:08;99633.39;;;-0.07;100.00
52185;BME280;38160;52.876;18.778;2023-02-03T13:31:05;99628.05;;;-0.04;100.00
52185;BME280;38160;52.876;18.778;2023-02-03T13:34:13;99616.78;;;-0.04;100.00
52185;BME280;38160;52.876;18.778;2023-02-03T13:37:17;99609.67;;;-0.06;100.00
52185;BME280;38160;52.876;18.778;2023-02-03T13:40:20;99608.13;;;-0.07;100.00
52185;BME280;38160;52.876;18.778;2023-02-03T13:43:02;99604.98;;;-0.05;100.00
52185;BME280;38160;52.876;18.778;2023-02-03T13:45:41;99598.77;;;-0.02;100.00
52185;BME280;38160;52.876;18.778;2023-02-03T13:48:21;99591.91;;;-0.01;100.00
52185;BME280;38160;52.876;18.778;2023-02-03T13:51:07;99587.50;;;0.02;100.00
52185;BME280;38160;52.876;18.778;2023-02-03T13:53:49;99578.61;;;0.02;100.00
52185;BME280;38160;52.876;18.778;2023-02-03T13:56:28;99583.79;;;0.02;100.00
52185;BME280;38160;52.876;18.778;2023-02-03T13:59:19;99580.95;;;0.02;100.00
52185;BME280;38160;52.876;18.778;2023-02-03T14:02:40;99574.04;;;0.02;100.00
52185;BME280;38160;52.876;18.778;2023-02-03T14:05:43;99570.98;;;0.03;100.00
52185;BME280;38160;52.876;18.778;2023-02-03T14:08:51;99564.39;;;0.05;100.00
52185;BME280;38160;52.876;18.778;2023-02-03T14:11:48;99561.69;;;0.06;100.00
52185;BME280;38160;52.876;18.778;2023-02-03T14:14:54;99558.96;;;0.05;100.00
52185;BME280;38160;52.876;18.778;2023-02-03T14:21:17;99560.39;;;0.11;100.00
52185;BME280;38160;52.876;18.778;2023-02-03T14:24:06;99555.05;;;0.16;100.00
52185;BME280;38160;52.876;18.778;2023-02-03T14:26:47;99547.80;;;0.16;100.00
52185;BME280;38160;52.876;18.778;2023-02-03T14:29:27;99548.04;;;0.17;100.00
52185;BME280;38160;52.876;18.778;2023-02-03T14:32:08;99547.38;;;0.21;100.00
52185;BME280;38160;52.876;18.778;2023-02-03T14:34:50;99540.77;;;0.26;100.00
52185;BME280;38160;52.876;18.778;2023-02-03T14:37:30;99541.74;;;0.32;100.00